createdAt,value
2022-12-08T00:00:52.197Z,100274.05
2022-12-08T00:03:19.097Z,100272.73
2022-12-08T00:06:06.319Z,100270.77
2022-12-08T00:08:52.294Z,100274.30
2022-12-08T00:11:19.069Z,100274.33
2022-12-08T00:13:46.183Z,100277.20
2022-12-08T00:16:12.691Z,100277.75
2022-12-08T00:18:39.376Z,100279.11
2022-12-08T00:21:06.444Z,100281.49
2022-12-08T00:23:32.874Z,100286.38
2022-12-08T00:26:05.990Z,100285.92
2022-12-08T00:28:33.231Z,100290.58
2022-12-08T00:31:00.307Z,100289.52
2022-12-08T00:33:28.079Z,100291.23
2022-12-08T00:35:54.811Z,100288.51
2022-12-08T00:38:21.207Z,100288.55
2022-12-08T00:40:47.834Z,100289.86
2022-12-08T00:43:22.702Z,100282.59
2022-12-08T00:45:49.157Z,100286.46
2022-12-08T00:48:15.779Z,100289.15
2022-12-08T00:50:42.179Z,100292.35
2022-12-08T00:53:08.528Z,100293.48
2022-12-08T00:55:34.854Z,100301.23
2022-12-08T00:58:01.967Z,100301.73
2022-12-08T01:00:28.531Z,100304.95
2022-12-08T01:02:55.009Z,100310.70
2022-12-08T01:05:21.486Z,100312.24
2022-12-08T01:07:48.747Z,100318.86
2022-12-08T01:10:15.972Z,100325.27
2022-12-08T01:12:42.462Z,100327.48
2022-12-08T01:15:09.295Z,100324.07
2022-12-08T01:17:36.692Z,100327.39
2022-12-08T01:20:04.395Z,100330.00
2022-12-08T01:22:33.351Z,100329.75
2022-12-08T01:24:59.798Z,100332.10
2022-12-08T01:27:26.277Z,100334.31
2022-12-08T01:29:52.693Z,100338.67
2022-12-08T01:32:19.029Z,100334.14
2022-12-08T01:34:45.450Z,100338.13
2022-12-08T01:37:11.957Z,100335.42
2022-12-08T01:39:40.561Z,100335.59
2022-12-08T01:42:19.252Z,100339.23
2022-12-08T01:44:52.843Z,100337.61
2022-12-08T01:47:20.193Z,100333.27
2022-12-08T01:49:47.190Z,100336.23
2022-12-08T01:52:42.067Z,100335.16
2022-12-08T01:55:16.456Z,100337.17
2022-12-08T01:57:46.864Z,100334.64
2022-12-08T02:00:16.795Z,100337.12
2022-12-08T02:03:02.665Z,100338.07
2022-12-08T02:05:40.200Z,100340.45
2022-12-08T02:08:10.229Z,100337.86
2022-12-08T02:10:39.612Z,100336.92
2022-12-08T02:13:09.552Z,100337.72
2022-12-08T02:15:57.463Z,100341.13
2022-12-08T02:18:53.724Z,100334.20
2022-12-08T02:21:57.877Z,100338.05
2022-12-08T02:24:27.307Z,100340.40
2022-12-08T02:27:37.796Z,100344.82
2022-12-08T02:30:10.855Z,100346.30
2022-12-08T02:33:22.141Z,100342.48
2022-12-08T02:35:57.869Z,100343.44
2022-12-08T02:38:36.241Z,100340.70
2022-12-08T02:41:25.696Z,100338.22
2022-12-08T02:44:05.432Z,100336.73
2022-12-08T02:46:38.328Z,100329.04
2022-12-08T02:49:06.281Z,100335.24
2022-12-08T02:51:32.718Z,100334.02
2022-12-08T02:54:01.818Z,100333.65
2022-12-08T02:56:49.955Z,100334.27
2022-12-08T02:59:35.385Z,100334.27
2022-12-08T03:02:11.033Z,100330.39
2022-12-08T03:04:53.603Z,100324.45
2022-12-08T03:07:31.856Z,100321.20
2022-12-08T03:10:07.708Z,100320.11
2022-12-08T03:13:05.517Z,100312.60
2022-12-08T03:15:34.610Z,100311.18
2022-12-08T03:18:01.205Z,100314.48
2022-12-08T03:20:30.302Z,100312.10
2022-12-08T03:22:59.506Z,100303.84
2022-12-08T03:25:30.267Z,100302.92
2022-12-08T03:27:58.736Z,100295.73
2022-12-08T03:30:29.816Z,100293.46
2022-12-08T03:33:04.354Z,100299.33
2022-12-08T03:35:34.195Z,100293.87
2022-12-08T03:38:10.114Z,100295.95
2022-12-08T03:40:38.304Z,100299.49
2022-12-08T03:43:05.105Z,100298.44
2022-12-08T03:45:31.560Z,100299.86
2022-12-08T03:47:58.032Z,100295.91
2022-12-08T03:50:24.476Z,100291.86
2022-12-08T03:52:50.881Z,100290.58
2022-12-08T03:55:17.279Z,100290.89
2022-12-08T03:57:43.804Z,100294.66
2022-12-08T04:00:14.375Z,100295.45
2022-12-08T04:02:40.912Z,100291.61
2022-12-08T04:05:07.782Z,100296.48
2022-12-08T04:07:34.139Z,100296.23
2022-12-08T04:10:00.498Z,100295.56
2022-12-08T04:12:26.780Z,100288.58
2022-12-08T04:14:53.222Z,100290.23
2022-12-08T04:17:20.268Z,100289.25
2022-12-08T04:19:46.630Z,100287.77
2022-12-08T04:22:12.976Z,100281.07
2022-12-08T04:24:39.457Z,100279.35
2022-12-08T04:27:06.203Z,100274.89
2022-12-08T04:29:32.670Z,100277.38
2022-12-08T04:31:59.176Z,100275.09
2022-12-08T04:34:25.637Z,100275.50
2022-12-08T04:36:52.053Z,100270.83
2022-12-08T04:39:18.476Z,100272.98
2022-12-08T04:41:44.983Z,100277.23
2022-12-08T04:44:14.084Z,100275.20
2022-12-08T04:46:43.686Z,100268.55
2022-12-08T04:49:10.496Z,100267.73
2022-12-08T04:51:36.889Z,100269.73
2022-12-08T04:54:03.452Z,100266.17
2022-12-08T04:56:29.912Z,100267.84
2022-12-08T04:58:56.325Z,100265.48
2022-12-08T05:01:22.774Z,100268.56
2022-12-08T05:03:49.393Z,100272.23
2022-12-08T05:06:15.846Z,100272.27
2022-12-08T05:08:42.971Z,100271.55
2022-12-08T05:11:11.312Z,100269.91
2022-12-08T05:13:37.870Z,100262.89
2022-12-08T05:16:07.273Z,100262.27
2022-12-08T05:18:34.743Z,100257.88
2022-12-08T05:21:02.415Z,100260.56
2022-12-08T05:23:29.218Z,100254.95
2022-12-08T05:25:56.454Z,100254.95
2022-12-08T05:31:14.455Z,100247.99
2022-12-08T05:33:41.280Z,100243.52
2022-12-08T05:36:09.607Z,100243.11
2022-12-08T05:38:36.083Z,100241.86
2022-12-08T05:41:02.728Z,100245.05
2022-12-08T05:43:29.200Z,100246.90
2022-12-08T05:45:55.737Z,100247.77
2022-12-08T05:48:22.087Z,100249.71
2022-12-08T05:50:49.965Z,100248.67
2022-12-08T05:53:18.140Z,100248.94
2022-12-08T05:55:45.241Z,100245.16
2022-12-08T05:58:14.948Z,100246.80
2022-12-08T06:00:42.362Z,100248.32
2022-12-08T06:03:11.719Z,100243.90
2022-12-08T06:05:40.373Z,100248.13
2022-12-08T06:08:07.743Z,100250.34
2022-12-08T06:10:34.585Z,100251.08
2022-12-08T06:13:01.174Z,100250.92
2022-12-08T06:15:27.770Z,100250.92
2022-12-08T06:17:54.288Z,100249.50
2022-12-08T06:20:20.785Z,100249.19
2022-12-08T06:22:47.215Z,100251.06
2022-12-08T06:25:13.674Z,100249.06
2022-12-08T06:27:40.099Z,100249.02
2022-12-08T06:30:07.295Z,100247.42
2022-12-08T06:32:34.347Z,100244.10
2022-12-08T06:35:00.788Z,100243.59
2022-12-08T06:37:27.199Z,100241.70
2022-12-08T06:39:53.973Z,100241.45
2022-12-08T06:42:39.359Z,100239.39
2022-12-08T06:45:06.753Z,100243.50
2022-12-08T06:47:33.404Z,100242.31
2022-12-08T06:50:00.140Z,100246.17
2022-12-08T06:52:26.583Z,100246.70
2022-12-08T06:54:53.637Z,100246.65
2022-12-08T06:57:20.923Z,100242.38
2022-12-08T06:59:47.467Z,100241.77
2022-12-08T07:02:14.029Z,100242.45
2022-12-08T07:04:40.661Z,100242.21
2022-12-08T07:07:07.131Z,100239.02
2022-12-08T07:09:34.169Z,100233.66
2022-12-08T07:12:01.231Z,100239.00
2022-12-08T07:14:28.439Z,100237.29
2022-12-08T07:16:55.246Z,100236.10
2022-12-08T07:19:22.140Z,100234.63
2022-12-08T07:21:49.103Z,100230.77
2022-12-08T07:24:16.038Z,100231.62
2022-12-08T07:26:42.868Z,100227.46
2022-12-08T07:29:10.147Z,100227.52
2022-12-08T07:31:37.206Z,100221.73
2022-12-08T07:34:03.708Z,100217.42
2022-12-08T07:36:32.423Z,100217.38
2022-12-08T07:38:59.148Z,100216.16
2022-12-08T07:41:26.369Z,100216.77
2022-12-08T07:43:53.434Z,100213.65
2022-12-08T07:46:22.568Z,100212.89
2022-12-08T07:48:49.734Z,100211.67
2022-12-08T07:51:16.870Z,100210.27
2022-12-08T07:53:50.045Z,100210.30
2022-12-08T07:56:20.826Z,100205.98
2022-12-08T07:58:47.435Z,100208.61
2022-12-08T08:01:25.483Z,100205.17
2022-12-08T08:03:53.466Z,100204.56
2022-12-08T08:06:19.911Z,100195.33
2022-12-08T08:08:47.294Z,100198.44
2022-12-08T08:11:20.756Z,100198.45
2022-12-08T08:13:49.523Z,100199.52
2022-12-08T08:16:17.224Z,100197.70
2022-12-08T08:18:47.619Z,100204.97
2022-12-08T08:21:44.860Z,100204.45
2022-12-08T08:24:00.883Z,100202.81
2022-12-08T08:26:27.927Z,100210.53
2022-12-08T08:28:55.258Z,100199.08
2022-12-08T08:43:57.670Z,100209.42
2022-12-08T08:46:26.710Z,100211.03
2022-12-08T08:48:54.718Z,100216.61
2022-12-08T08:51:22.869Z,100220.64
2022-12-08T08:53:51.138Z,100220.27
2022-12-08T08:56:19.797Z,100220.20
2022-12-08T08:58:49.724Z,100218.51
2022-12-08T09:01:24.881Z,100217.04
2022-12-08T09:03:54.479Z,100215.98
2022-12-08T09:06:24.216Z,100213.56
2022-12-08T09:08:52.438Z,100212.40
2022-12-08T09:11:20.764Z,100213.85
2022-12-08T09:13:49.605Z,100212.63
2022-12-08T09:16:18.262Z,100214.42
2022-12-08T09:18:47.934Z,100206.17
2022-12-08T09:21:22.718Z,100203.91
2022-12-08T09:23:52.837Z,100206.38
2022-12-08T09:26:24.330Z,100206.71
2022-12-08T09:28:53.992Z,100200.13
2022-12-08T09:31:23.895Z,100197.41
2022-12-08T09:33:52.260Z,100201.54
2022-12-08T09:36:20.896Z,100195.09
2022-12-08T09:38:50.516Z,100191.60
2022-12-08T09:41:44.872Z,100191.52
2022-12-08T09:44:44.790Z,100194.51
2022-12-08T09:47:24.457Z,100187.65
2022-12-08T09:50:03.356Z,100185.35
2022-12-08T09:52:41.276Z,100185.36
2022-12-08T09:55:25.055Z,100181.39
2022-12-08T09:58:03.264Z,100181.77
2022-12-08T10:00:31.424Z,100179.75
2022-12-08T10:03:00.353Z,100178.98
2022-12-08T10:05:34.460Z,100178.61
2022-12-08T10:08:19.097Z,100173.09
2022-12-08T10:11:00.094Z,100176.75
2022-12-08T10:13:46.519Z,100174.51
2022-12-08T10:16:30.371Z,100170.43
2022-12-08T10:19:11.292Z,100175.62
2022-12-08T10:21:40.749Z,100172.11
2022-12-08T10:24:34.752Z,100172.35
2022-12-08T10:27:03.650Z,100173.35
2022-12-08T10:29:31.982Z,100174.77
2022-12-08T10:32:00.348Z,100172.81
2022-12-08T10:34:28.208Z,100173.56
2022-12-08T10:36:58.586Z,100173.62
2022-12-08T10:39:46.415Z,100166.02
2022-12-08T10:42:14.754Z,100166.80
2022-12-08T10:44:57.796Z,100166.95
2022-12-08T10:47:28.527Z,100171.23
2022-12-08T10:50:28.694Z,100163.09
2022-12-08T10:53:08.734Z,100160.98
2022-12-08T10:55:44.904Z,100161.96
2022-12-08T10:58:33.938Z,100158.75
2022-12-08T11:01:36.675Z,100160.39
2022-12-08T11:04:11.785Z,100160.94
2022-12-08T11:06:40.885Z,100159.46
2022-12-08T11:09:17.489Z,100158.44
2022-12-08T11:11:49.121Z,100151.46
2022-12-08T11:14:24.854Z,100152.52
2022-12-08T11:16:55.984Z,100147.38
2022-12-08T11:19:27.724Z,100145.27
2022-12-08T11:21:55.587Z,100145.31
2022-12-08T11:24:24.916Z,100147.87
2022-12-08T11:27:02.617Z,100143.01
2022-12-08T11:29:35.476Z,100135.55
2022-12-08T11:32:12.737Z,100140.05
2022-12-08T11:34:50.623Z,100140.23
2022-12-08T11:37:35.060Z,100142.58
2022-12-08T11:40:07.847Z,100143.80
2022-12-08T11:42:44.168Z,100140.02
2022-12-08T11:45:16.786Z,100140.03
2022-12-08T11:47:56.253Z,100135.77
2022-12-08T11:50:31.611Z,100131.01
2022-12-08T11:53:01.349Z,100134.78
2022-12-08T11:55:40.646Z,100134.39
2022-12-08T11:58:22.247Z,100125.85
2022-12-08T12:00:51.030Z,100128.41
2022-12-08T12:03:34.862Z,100121.56
2022-12-08T12:06:18.553Z,100121.70
2022-12-08T12:09:13.350Z,100117.52
2022-12-08T12:12:16.788Z,100110.44
2022-12-08T12:15:19.958Z,100109.19
2022-12-08T12:17:54.479Z,100109.87
2022-12-08T12:20:28.624Z,100108.55
2022-12-08T12:23:14.650Z,100108.05
2022-12-08T12:26:05.670Z,100110.08
2022-12-08T12:28:45.023Z,100105.98
2022-12-08T12:31:18.661Z,100103.71
2022-12-08T12:33:47.098Z,100099.25
2022-12-08T12:36:15.850Z,100099.09
2022-12-08T12:39:08.658Z,100092.45
2022-12-08T12:41:45.887Z,100092.34
2022-12-08T12:44:14.679Z,100090.55
2022-12-08T12:46:53.079Z,100083.81
2022-12-08T12:49:39.494Z,100085.61
2022-12-08T12:52:17.162Z,100085.38
2022-12-08T12:54:52.006Z,100081.29
2022-12-08T12:57:20.080Z,100080.52
2022-12-08T12:59:55.841Z,100077.33
2022-12-08T13:02:26.544Z,100072.80
2022-12-08T13:05:13.735Z,100076.64
2022-12-08T13:07:56.724Z,100074.48
2022-12-08T13:10:26.795Z,100080.17
2022-12-08T13:13:10.145Z,100089.27
2022-12-08T13:15:52.919Z,100086.60
2022-12-08T13:18:26.134Z,100088.42
2022-12-08T13:21:08.337Z,100089.44
2022-12-08T13:23:36.712Z,100087.33
2022-12-08T13:26:20.106Z,100089.81
2022-12-08T13:29:06.535Z,100089.67
2022-12-08T13:32:05.624Z,100088.25
2022-12-08T13:34:42.270Z,100086.41
2022-12-08T13:37:16.455Z,100079.70
2022-12-08T13:39:52.582Z,100082.45
2022-12-08T13:42:56.909Z,100079.58
2022-12-08T13:49:52.648Z,100082.46
2022-12-08T13:57:36.399Z,100078.27
2022-12-08T14:00:16.067Z,100077.05
2022-12-08T14:02:48.548Z,100074.77
2022-12-08T14:05:26.584Z,100073.48
2022-12-08T14:08:08.937Z,100067.61
2022-12-08T14:10:38.373Z,100068.42
2022-12-08T14:13:13.103Z,100065.98
2022-12-08T14:15:42.632Z,100061.30
2022-12-08T14:18:29.377Z,100056.31
2022-12-08T14:21:21.672Z,100055.45
2022-12-08T14:23:52.914Z,100058.58
2022-12-08T14:26:23.463Z,100058.25
2022-12-08T14:28:52.296Z,100061.67
2022-12-08T14:31:21.410Z,100066.36
2022-12-08T14:33:56.281Z,100067.80
2022-12-08T14:36:26.155Z,100065.52
2022-12-08T14:38:57.608Z,100070.16
2022-12-08T14:41:33.745Z,100069.36
2022-12-08T14:44:02.481Z,100067.52
2022-12-08T14:46:31.947Z,100062.34
2022-12-08T14:49:00.149Z,100063.74
2022-12-08T14:51:32.375Z,100065.39
2022-12-08T14:54:06.437Z,100066.27
2022-12-08T14:56:52.120Z,100068.15
2022-12-08T14:59:27.134Z,100067.14
2022-12-08T15:02:09.425Z,100066.64
2022-12-08T15:04:39.584Z,100064.27
2022-12-08T15:07:16.311Z,100065.21
2022-12-08T15:09:50.366Z,100064.10
2022-12-08T15:12:27.023Z,100063.64
2022-12-08T15:15:00.010Z,100063.17
2022-12-08T15:17:47.878Z,100066.11
2022-12-08T15:20:34.998Z,100067.88
2022-12-08T15:23:04.347Z,100072.89
2022-12-08T15:25:38.345Z,100071.02
2022-12-08T15:28:21.276Z,100068.12
2022-12-08T15:30:54.073Z,100066.27
2022-12-08T15:33:23.059Z,100065.11
2022-12-08T15:35:54.261Z,100069.53
2022-12-08T15:38:26.621Z,100064.38
2022-12-08T15:40:59.964Z,100066.48
2022-12-08T15:43:28.815Z,100061.25
2022-12-08T15:46:01.255Z,100061.45
2022-12-08T15:48:31.342Z,100061.36
2022-12-08T15:50:59.460Z,100063.30
2022-12-08T15:53:28.275Z,100062.05
2022-12-08T15:58:56.611Z,100057.14
2022-12-08T16:01:30.520Z,100054.59
2022-12-08T16:04:34.079Z,100059.49
2022-12-08T16:07:20.199Z,100054.05
2022-12-08T16:09:41.909Z,100057.42
2022-12-08T16:13:55.010Z,100060.65
2022-12-08T16:15:59.774Z,100054.19
2022-12-08T16:18:54.625Z,100055.46
2022-12-08T16:21:53.459Z,100056.73
2022-12-08T16:24:13.846Z,100058.23
2022-12-08T16:29:34.704Z,100060.33
2022-12-08T16:36:05.224Z,100059.00
2022-12-08T16:38:36.208Z,100060.56
2022-12-08T16:41:24.377Z,100063.81
2022-12-08T16:43:54.970Z,100065.52
2022-12-08T16:46:26.247Z,100064.02
2022-12-08T16:48:56.156Z,100064.45
2022-12-08T16:51:28.060Z,100064.14
2022-12-08T16:53:59.782Z,100063.23
2022-12-08T16:56:33.085Z,100062.29
2022-12-08T16:59:02.684Z,100058.35
2022-12-08T17:01:34.610Z,100054.52
2022-12-08T17:06:54.468Z,100054.98
2022-12-08T17:09:23.339Z,100053.40
2022-12-08T17:11:52.214Z,100053.15
2022-12-08T17:14:20.415Z,100049.18
2022-12-08T17:16:48.691Z,100050.20
2022-12-08T17:19:17.432Z,100049.59
2022-12-08T17:21:46.373Z,100051.69
2022-12-08T17:24:21.952Z,100057.62
2022-12-08T17:26:53.256Z,100063.70
2022-12-08T17:29:22.553Z,100055.61
2022-12-08T17:31:55.240Z,100056.54
2022-12-08T17:34:25.323Z,100061.16
2022-12-08T17:36:54.261Z,100062.80
2022-12-08T17:39:23.487Z,100060.98
2022-12-08T17:41:52.241Z,100061.17
2022-12-08T17:44:21.276Z,100061.38
2022-12-08T17:46:53.009Z,100060.31
2022-12-08T17:49:24.828Z,100062.70
2022-12-08T17:51:55.216Z,100060.73
2022-12-08T17:54:23.465Z,100062.30
2022-12-08T17:56:52.229Z,100060.11
2022-12-08T17:59:23.878Z,100061.95
2022-12-08T18:01:53.368Z,100065.92
2022-12-08T18:04:23.143Z,100061.13
2022-12-08T18:06:51.901Z,100061.05
2022-12-08T18:09:20.578Z,100060.14
2022-12-08T18:11:49.415Z,100060.55
2022-12-08T18:14:17.936Z,100062.33
2022-12-08T18:16:47.164Z,100063.29
2022-12-08T18:19:17.085Z,100065.31
2022-12-08T18:21:46.584Z,100066.26
2022-12-08T18:24:23.072Z,100063.91
2022-12-08T18:26:52.886Z,100064.11
2022-12-08T18:29:24.003Z,100062.17
2022-12-08T18:31:54.662Z,100062.48
2022-12-08T18:34:25.218Z,100061.42
2022-12-08T18:36:53.986Z,100062.54
2022-12-08T18:39:25.852Z,100063.58
2022-12-08T18:41:54.827Z,100064.23
2022-12-08T18:44:23.696Z,100064.85
2022-12-08T18:46:52.929Z,100064.86
2022-12-08T18:49:20.866Z,100068.48
2022-12-08T18:51:51.087Z,100068.17
2022-12-08T18:54:27.727Z,100067.20
2022-12-08T18:57:06.136Z,100063.52
2022-12-08T18:59:34.701Z,100069.16
2022-12-08T19:02:06.411Z,100072.55
2022-12-08T19:04:39.057Z,100074.79
2022-12-08T19:07:08.578Z,100076.10
2022-12-08T19:09:37.807Z,100072.19
2022-12-08T19:12:07.005Z,100071.46
2022-12-08T19:14:35.521Z,100067.67
2022-12-08T19:17:04.179Z,100069.48
2022-12-08T19:19:33.215Z,100066.83
2022-12-08T19:22:02.976Z,100069.88
2022-12-08T19:24:37.741Z,100077.08
2022-12-08T19:27:06.493Z,100075.30
2022-12-08T19:29:35.364Z,100072.58
2022-12-08T19:32:05.457Z,100077.81
2022-12-08T19:34:34.220Z,100076.85
2022-12-08T19:37:02.516Z,100082.41
2022-12-08T19:39:49.198Z,100077.05
2022-12-08T19:42:40.723Z,100075.09
2022-12-08T19:45:17.101Z,100074.92
2022-12-08T19:47:45.916Z,100078.89
2022-12-08T19:50:34.177Z,100079.63
2022-12-08T19:53:12.347Z,100085.20
2022-12-08T19:55:42.470Z,100084.08
2022-12-08T19:58:11.657Z,100087.05
2022-12-08T20:00:44.276Z,100089.84
2022-12-08T20:03:20.987Z,100091.69
2022-12-08T20:05:53.294Z,100097.85
2022-12-08T20:08:22.036Z,100098.45
2022-12-08T20:10:56.296Z,100099.49
2022-12-08T20:13:44.697Z,100101.93
2022-12-08T20:16:13.779Z,100102.73
2022-12-08T20:18:44.365Z,100107.63
2022-12-08T20:21:12.670Z,100109.36
2022-12-08T20:23:40.980Z,100111.00
2022-12-08T20:26:12.346Z,100112.06
2022-12-08T20:28:41.384Z,100116.00
2022-12-08T20:31:21.692Z,100119.70
2022-12-08T20:33:50.151Z,100118.74
2022-12-08T20:36:20.232Z,100121.83
2022-12-08T20:38:50.766Z,100123.55
2022-12-08T20:41:24.221Z,100124.11
2022-12-08T20:43:53.419Z,100121.55
2022-12-08T20:46:23.426Z,100125.08
2022-12-08T20:48:53.044Z,100123.67
2022-12-08T20:51:28.429Z,100126.02
2022-12-08T20:54:01.033Z,100123.06
2022-12-08T20:56:31.604Z,100124.66
2022-12-08T20:59:00.122Z,100122.73
2022-12-08T21:01:29.105Z,100124.94
2022-12-08T21:03:58.201Z,100127.00
2022-12-08T21:06:29.880Z,100124.39
2022-12-08T21:08:58.508Z,100127.57
2022-12-08T21:11:27.245Z,100131.86
2022-12-08T21:13:56.687Z,100137.79
2022-12-08T21:16:27.037Z,100138.91
2022-12-08T21:18:55.645Z,100139.84
2022-12-08T21:21:25.205Z,100139.52
2022-12-08T21:23:53.662Z,100136.72
2022-12-08T21:26:26.222Z,100141.92
2022-12-08T21:28:58.879Z,100137.44
2022-12-08T21:31:29.205Z,100136.48
2022-12-08T21:34:01.570Z,100136.66
2022-12-08T21:36:31.460Z,100138.63
2022-12-08T21:39:01.438Z,100134.45
2022-12-08T21:41:49.685Z,100140.48
2022-12-08T21:44:20.592Z,100139.77
2022-12-08T21:46:48.437Z,100141.19
2022-12-08T21:49:16.374Z,100137.15
2022-12-08T21:51:44.412Z,100136.14
2022-12-08T21:54:18.375Z,100137.36
2022-12-08T21:56:49.831Z,100140.55
2022-12-08T21:59:19.841Z,100139.42
2022-12-08T22:01:48.052Z,100142.58
2022-12-08T22:04:21.412Z,100140.13
2022-12-08T22:06:50.767Z,100141.39
2022-12-08T22:09:22.370Z,100139.06
2022-12-08T22:11:50.534Z,100133.25
2022-12-08T22:14:18.567Z,100140.45
2022-12-08T22:16:46.485Z,100138.40
2022-12-08T22:19:14.295Z,100137.65
2022-12-08T22:21:43.211Z,100137.00
2022-12-08T22:24:11.119Z,100136.80
2022-12-08T22:26:38.964Z,100141.11
2022-12-08T22:29:07.238Z,100145.95
2022-12-08T22:31:35.356Z,100142.83
2022-12-08T22:34:03.260Z,100150.90
2022-12-08T22:36:31.154Z,100145.48
2022-12-08T22:38:59.024Z,100144.80
2022-12-08T22:41:27.450Z,100144.66
2022-12-08T22:43:55.582Z,100145.88
2022-12-08T22:46:26.036Z,100151.40
2022-12-08T22:48:55.322Z,100152.73
2022-12-08T22:51:23.189Z,100154.76
2022-12-08T22:53:51.551Z,100159.77
2022-12-08T22:56:19.735Z,100154.04
2022-12-08T22:58:48.020Z,100153.17
2022-12-08T23:01:29.254Z,100154.30
2022-12-08T23:03:58.726Z,100154.17
2022-12-08T23:06:28.488Z,100150.14
2022-12-08T23:08:56.663Z,100150.80
2022-12-08T23:11:27.212Z,100150.67
2022-12-08T23:13:56.324Z,100145.98
2022-12-08T23:16:24.493Z,100140.64
2022-12-08T23:18:52.405Z,100142.54
2022-12-08T23:21:21.273Z,100145.50
2022-12-08T23:23:49.112Z,100155.34
2022-12-08T23:26:20.899Z,100158.53
2022-12-08T23:28:49.130Z,100160.55
2022-12-08T23:31:17.630Z,100162.85
2022-12-08T23:33:46.286Z,100165.83
2022-12-08T23:36:16.036Z,100168.04
2022-12-08T23:38:44.237Z,100169.71
2022-12-08T23:41:14.210Z,100170.80
2022-12-08T23:43:46.859Z,100169.39
2022-12-08T23:46:16.842Z,100177.77
2022-12-08T23:48:45.217Z,100177.18
2022-12-08T23:51:13.966Z,100175.36
2022-12-08T23:53:42.324Z,100177.31
2022-12-08T23:56:12.923Z,100172.73
2022-12-08T23:58:41.825Z,100172.95
